Dades meteomassalio
Diari Summary for Gener 4, 2017 Units:  English    Metric   Both
« Previous Day
Next Day »
Diari Semanal Mensual Anual Personalitzat
  Maxima: Minima: Mijana:
Temperatura: 53.8 °F 28 °F 41.5 °F
Rosada: 44.6 °F 27 °F 34.7 °F
Humitat: 95 % 50 % 79 %
Velocitat del vent: 0 mph 0 mph 0 mph
Racha vent: 0 mph - -
Vent:- - North
Pressio: 30.4 in 30.3 in -
Pluja: 0.02 in    
Historical Graphs
 
 
Tabular Data for Gener 4, 2017
Time Temperature Dew Point Pressure Wind Wind Speed Wind Gust Humidity Rainfall Rate (Hourly) solar Conditions
00:04 30.9 °F 29.7 °F 30.4 in Calm     95 % 0 in 0.0 W/m2 CLR
00:09 30.9 °F 29.7 °F 30.4 in Calm     95 % 0 in 0.0 W/m2 CLR
00:14 30.9 °F 29.7 °F 30.4 in Calm     95 % 0 in 0.0 W/m2 CLR
00:19 30.9 °F 29.7 °F 30.4 in Calm     95 % 0 in 0.0 W/m2 CLR
00:24 30.7 °F 29.5 °F 30.4 in Calm     95 % 0 in 0.0 W/m2 CLR
00:29 30.7 °F 29.5 °F 30.4 in Calm     95 % 0 in 0.0 W/m2 CLR
00:34 30.6 °F 29.3 °F 30.4 in Calm     95 % 0 in 0.0 W/m2 CLR
00:39 30.6 °F 29.1 °F 30.4 in Calm     95 % 0 in 0.0 W/m2 CLR
00:44 30.6 °F 29.3 °F 30.4 in Calm     95 % 0 in 0.0 W/m2 CLR
00:49 30.7 °F 29.5 °F 30.4 in Calm     95 % 0 in 0.0 W/m2 CLR
00:54 30.7 °F 29.5 °F 30.4 in Calm     95 % 0 in 0.0 W/m2 CLR
00:59 30.7 °F 29.5 °F 30.4 in Calm     95 % 0 in 0.0 W/m2 CLR
01:04 30.6 °F 29.3 °F 30.4 in Calm     95 % 0 in 0.0 W/m2 CLR
01:09 30.6 °F 29.3 °F 30.4 in Calm     95 % 0 in 0.0 W/m2 CLR
01:14 30.6 °F 29.1 °F 30.4 in Calm     95 % 0 in 0.0 W/m2 CLR
01:19 30.6 °F 29.1 °F 30.4 in Calm     95 % 0 in 0.0 W/m2 CLR
01:24 30.4 °F 29.1 °F 30.4 in Calm     95 % 0 in 0.0 W/m2 CLR
01:29 30.4 °F 28.9 °F 30.4 in Calm     95 % 0 in 0.0 W/m2 CLR
01:34 30.2 °F 28.9 °F 30.4 in Calm     95 % 0 in 0.0 W/m2 CLR
01:39 30.4 °F 29.1 °F 30.4 in Calm     95 % 0 in 0.0 W/m2 CLR
01:44 30.6 °F 29.1 °F 30.4 in Calm     95 % 0 in 0.0 W/m2 CLR
01:49 30.6 °F 29.3 °F 30.4 in Calm     95 % 0 in 0.0 W/m2 CLR
01:54 30.7 °F 29.5 °F 30.4 in Calm     95 % 0 in 0.0 W/m2 CLR
01:59 30.7 °F 29.5 °F 30.4 in Calm     95 % 0 in 0.0 W/m2 CLR
02:04 30.7 °F 29.5 °F 30.3 in Calm     95 % 0 in 0.0 W/m2 CLR
02:09 30.6 °F 29.3 °F 30.3 in Calm     95 % 0 in 0.0 W/m2 CLR
02:14 30.4 °F 29.1 °F 30.3 in Calm     95 % 0 in 0.0 W/m2 CLR
02:19 30.4 °F 28.9 °F 30.3 in Calm     95 % 0 in 0.0 W/m2 CLR
02:24 30 °F 28.8 °F 30.3 in Calm     95 % 0 in 0.0 W/m2 CLR
02:29 30 °F 28.8 °F 30.3 in Calm     95 % 0 in 0.0 W/m2 CLR
02:34 30 °F 28.8 °F 30.3 in Calm     95 % 0 in 0.0 W/m2 CLR
02:39 30 °F 28.8 °F 30.3 in Calm     95 % 0 in 0.0 W/m2 CLR
02:44 30.2 °F 28.9 °F 30.3 in Calm     95 % 0 in 0.0 W/m2 CLR
02:49 30.2 °F 28.9 °F 30.3 in Calm     95 % 0 in 0.0 W/m2 CLR
02:54 30.2 °F 28.9 °F 30.4 in Calm     95 % 0 in 0.0 W/m2 CLR
02:59 30.2 °F 28.9 °F 30.4 in Calm     95 % 0 in 0.0 W/m2 CLR
03:04 30 °F 28.8 °F 30.4 in Calm     95 % 0 in 0.0 W/m2 CLR
03:09 30 °F 28.8 °F 30.4 in Calm     95 % 0 in 0.0 W/m2 CLR
03:14 30 °F 28.8 °F 30.4 in Calm     95 % 0 in 0.0 W/m2 CLR
03:19 29.8 °F 28.6 °F 30.4 in Calm     95 % 0 in 0.0 W/m2 CLR
03:24 29.8 °F 28.6 °F 30.4 in Calm     95 % 0 in 0.0 W/m2 CLR
03:29 30 °F 28.8 °F 30.4 in Calm     95 % 0 in 0.0 W/m2 CLR
03:34 30 °F 28.8 °F 30.4 in Calm     95 % 0 in 0.0 W/m2 CLR
03:39 30 °F 28.8 °F 30.4 in Calm     95 % 0 in 0.0 W/m2 CLR
03:44 30.4 °F 28.9 °F 30.4 in Calm     95 % 0 in 0.0 W/m2 CLR
03:49 30.4 °F 29.1 °F 30.4 in Calm     95 % 0 in 0.0 W/m2 CLR
03:54 30 °F 28.8 °F 30.4 in Calm     95 % 0 in 0.0 W/m2 CLR
03:59 29.7 °F 28.4 °F 30.4 in Calm     95 % 0 in 0.0 W/m2 CLR
04:04 29.7 °F 28.2 °F 30.4 in Calm     95 % 0 in 0.0 W/m2 CLR
04:09 29.5 °F 28.2 °F 30.4 in Calm     95 % 0 in 0.0 W/m2 CLR
04:14 29.5 °F 28.2 °F 30.4 in Calm     95 % 0 in 0.0 W/m2 CLR
04:19 29.5 °F 28.2 °F 30.4 in Calm     95 % 0 in 0.0 W/m2 CLR
04:24 29.5 °F 28.2 °F 30.4 in Calm     95 % 0 in 0.0 W/m2 CLR
04:29 29.5 °F 28.2 °F 30.4 in Calm     95 % 0 in 0.0 W/m2 CLR
04:34 29.7 °F 28.2 °F 30.4 in Calm     95 % 0 in 0.0 W/m2 CLR
04:39 29.7 °F 28.2 °F 30.4 in Calm     95 % 0 in 0.0 W/m2 CLR
04:45 29.7 °F 28.2 °F 30.4 in Calm     95 % 0 in 0.0 W/m2 CLR
04:50 29.7 °F 28.2 °F 30.4 in Calm     95 % 0 in 0.0 W/m2 CLR
04:55 29.7 °F 28.2 °F 30.4 in Calm     95 % 0 in 0.0 W/m2 CLR
05:00 29.5 °F 28.2 °F 30.4 in Calm     95 % 0 in 0.0 W/m2 CLR
05:05 29.5 °F 28 °F 30.4 in Calm     95 % 0 in 0.0 W/m2 CLR
05:10 29.3 °F 28 °F 30.4 in Calm     95 % 0 in 0.0 W/m2 CLR
05:15 29.3 °F 28 °F 30.4 in Calm     95 % 0 in 0.0 W/m2 CLR
05:20 29.1 °F 27.9 °F 30.4 in Calm     95 % 0 in 0.0 W/m2 CLR
05:25 29.1 °F 27.9 °F 30.4 in Calm     95 % 0 in 0.0 W/m2 CLR
05:30 29.1 °F 27.9 °F 30.4 in Calm     95 % 0 in 0.0 W/m2 CLR
05:35 29.3 °F 28 °F 30.4 in Calm     95 % 0 in 0.0 W/m2 CLR
05:40 29.3 °F 28 °F 30.4 in Calm     95 % 0 in 0.0 W/m2 CLR
05:45 29.3 °F 28 °F 30.4 in Calm     95 % 0 in 0.0 W/m2 CLR
05:50 29.3 °F 28 °F 30.4 in Calm     95 % 0 in 0.0 W/m2 CLR
05:55 29.1 °F 27.9 °F 30.4 in Calm     95 % 0 in 0.0 W/m2 CLR
06:00 29.1 °F 27.9 °F 30.4 in Calm     95 % 0 in 0.0 W/m2 CLR
06:05 28.9 °F 27.7 °F 30.4 in Calm     95 % 0 in 0.0 W/m2 CLR
06:10 28.9 °F 27.7 °F 30.4 in Calm     95 % 0 in 0.0 W/m2 CLR
06:15 28.9 °F 27.7 °F 30.4 in Calm     95 % 0 in 0.0 W/m2 CLR
06:20 28.8 °F 27.5 °F 30.4 in Calm     95 % 0 in 0.0 W/m2 CLR
06:25 28.8 °F 27.3 °F 30.4 in Calm     95 % 0 in 0.0 W/m2 CLR
06:30 28.6 °F 27.3 °F 30.4 in Calm     95 % 0 in 0.0 W/m2 CLR
06:35 28.6 °F 27.3 °F 30.4 in Calm     95 % 0 in 0.0 W/m2 CLR
06:40 28.8 °F 27.3 °F 30.4 in Calm     95 % 0 in 0.0 W/m2 CLR
06:45 28.8 °F 27.3 °F 30.4 in Calm     95 % 0 in 0.0 W/m2 CLR
06:50 28.8 °F 27.3 °F 30.4 in Calm     95 % 0 in 0.0 W/m2 CLR
06:55 28.9 °F 27.7 °F 30.4 in Calm     95 % 0 in 0.0 W/m2 CLR
07:00 28.9 °F 27.7 °F 30.4 in Calm     95 % 0 in 0.0 W/m2 CLR
07:05 28.9 °F 27.7 °F 30.4 in Calm     95 % 0 in 0.0 W/m2 CLR
07:10 28.8 °F 27.5 °F 30.4 in Calm     95 % 0 in 0.0 W/m2 CLR
07:15 28.6 °F 27.3 °F 30.4 in Calm     95 % 0 in 0.0 W/m2 CLR
07:20 28.6 °F 27.3 °F 30.4 in Calm     95 % 0 in 0.0 W/m2 CLR
07:25 28.6 °F 27.3 °F 30.4 in Calm     95 % 0 in 0.0 W/m2 CLR
07:30 28.6 °F 27.3 °F 30.4 in Calm     95 % 0 in 0.0 W/m2 CLR
07:35 28.6 °F 27.3 °F 30.4 in Calm     95 % 0 in 0.0 W/m2 CLR
07:40 28.6 °F 27.3 °F 30.4 in Calm     95 % 0 in 0.0 W/m2 CLR
07:45 28.6 °F 27.3 °F 30.4 in Calm     95 % 0 in 0.0 W/m2 CLR
07:50 28.4 °F 27.1 °F 30.4 in Calm     95 % 0 in 0.0 W/m2 CLR
07:55 28.2 °F 27 °F 30.4 in Calm     95 % 0 in 0.0 W/m2 CLR
08:00 28 °F 27 °F 30.4 in Calm     95 % 0 in 0.0 W/m2 CLR
08:05 28.2 °F 27 °F 30.4 in Calm     95 % 0 in 0.0 W/m2 CLR
08:10 28.2 °F 27.1 °F 30.4 in Calm     95 % 0 in 0.0 W/m2 CLR
08:15 28.6 °F 27.3 °F 30.4 in Calm     95 % 0 in 0.0 W/m2 CLR
08:20 29.1 °F 27.9 °F 30.4 in Calm     95 % 0 in 0.0 W/m2 CLR
08:25 29.5 °F 28 °F 30.4 in Calm     95 % 0 in 5.0 W/m2 BKN
08:30 29.3 °F 28 °F 30.4 in Calm     95 % 0 in 7.0 W/m2 BKN
08:35 29.8 °F 28.6 °F 30.4 in Calm     95 % 0 in 9.0 W/m2 BKN
08:40 29.5 °F 28.2 °F 30.4 in Calm     95 % 0 in 12.0 W/m2 BKN
08:45 29.5 °F 28 °F 30.4 in Calm     95 % 0 in 14.0 W/m2 BKN
08:50 29.7 °F 28.4 °F 30.4 in Calm     95 % 0 in 18.0 W/m2 BKN
08:55 30.2 °F 28.9 °F 30.4 in Calm     95 % 0 in 21.0 W/m2 BKN
09:00 30.6 °F 29.3 °F 30.4 in Calm     95 % 0 in 23.0 W/m2 BKN
09:05 31.1 °F 29.8 °F 30.4 in Calm     95 % 0 in 33.0 W/m2 BKN
09:10 31.5 °F 30.2 °F 30.4 in Calm     95 % 0 in 53.0 W/m2 BKN
09:15 32.2 °F 30.7 °F 30.4 in Calm     95 % 0 in 70.0 W/m2 BKN
09:20 32.5 °F 31.3 °F 30.4 in Calm     95 % 0 in 63.0 W/m2 BKN
09:25 32.7 °F 31.5 °F 30.4 in Calm     95 % 0 in 88.0 W/m2 BKN
09:30 33.3 °F 31.8 °F 30.4 in Calm     95 % 0 in 98.0 W/m2 BKN
09:35 33.4 °F 32.2 °F 30.4 in Calm     95 % 0 in 100.0 W/m2 BKN
09:40 34.3 °F 33.1 °F 30.4 in Calm     95 % 0 in 134.0 W/m2 BKN
09:45 34.9 °F 33.4 °F 30.4 in Calm     95 % 0.01 in 146.0 W/m2 RA
09:50 35.1 °F 33.8 °F 30.4 in Calm     95 % 0.01 in 125.0 W/m2 SCT
09:55 35.6 °F 34.3 °F 30.4 in Calm     95 % 0.01 in 169.0 W/m2 SCT
10:00 36.1 °F 34.9 °F 30.4 in Calm     95 % 0.02 in 185.0 W/m2 RA
10:05 36.7 °F 35.2 °F 30.4 in Calm     95 % 0.02 in 156.0 W/m2 SCT
10:10 36.3 °F 35.1 °F 30.4 in Calm     95 % 0.02 in 183.0 W/m2 SCT
10:15 36.3 °F 35.1 °F 30.4 in Calm     95 % 0.02 in 183.0 W/m2 SCT
10:20 36.3 °F 35.1 °F 30.4 in Calm     95 % 0.02 in 225.0 W/m2 BKN
10:25 36.7 °F 35.2 °F 30.4 in Calm     95 % 0.02 in 244.0 W/m2 SCT
10:30 36.9 °F 35.4 °F 30.4 in Calm     95 % 0.02 in 257.0 W/m2 SCT
10:35 37.4 °F 36.1 °F 30.4 in Calm     95 % 0.02 in 265.0 W/m2 SCT
10:40 38.1 °F 36.9 °F 30.4 in Calm     95 % 0.02 in 272.0 W/m2 SCT
10:45 39.4 °F 37.9 °F 30.4 in Calm     95 % 0.01 in 283.0 W/m2 SCT
10:50 40.6 °F 39.4 °F 30.4 in Calm     95 % 0.01 in 294.0 W/m2 SCT
10:56 42.4 °F 41.2 °F 30.4 in Calm     95 % 0.01 in 301.0 W/m2 SCT
11:01 44.1 °F 42.6 °F 30.4 in Calm     95 % 0 in 306.0 W/m2 FEW
11:06 45.1 °F 43.9 °F 30.4 in Calm     95 % 0 in 315.0 W/m2 FEW
11:11 46 °F 44.6 °F 30.4 in Calm     95 % 0 in 325.0 W/m2 FEW
11:16 46.9 °F 44.2 °F 30.4 in Calm     90 % 0 in 332.0 W/m2 FEW
11:21 47.3 °F 43.3 °F 30.4 in Calm     86 % 0 in 338.0 W/m2 FEW
11:26 47.8 °F 43.2 °F 30.4 in Calm     84 % 0 in 346.0 W/m2 FEW
11:27 47.8 °F 43 °F 30.4 in Calm     83 % 0 in 350.0 W/m2 FEW
11:32 48 °F 42.8 °F 30.4 in Calm     82 % 0 in 359.0 W/m2 FEW
11:37 48.2 °F 42.6 °F 30.4 in Calm     81 % 0 in 367.0 W/m2 FEW
11:42 48.2 °F 42.1 °F 30.4 in Calm     79 % 0 in 374.0 W/m2 FEW
11:47 48.4 °F 42.4 °F 30.4 in Calm     80 % 0 in 378.0 W/m2 FEW
11:52 48.6 °F 42.4 °F 30.4 in Calm     79 % 0 in 385.0 W/m2 FEW
11:57 48.7 °F 42.8 °F 30.4 in Calm     80 % 0 in 390.0 W/m2 FEW
12:02 48.7 °F 42.4 °F 30.4 in Calm     79 % 0 in 392.0 W/m2 FEW
12:07 48.9 °F 43.2 °F 30.3 in Calm     80 % 0 in 396.0 W/m2 FEW
12:12 49.5 °F 43.3 °F 30.3 in Calm     79 % 0 in 401.0 W/m2 FEW
12:17 49.8 °F 43.5 °F 30.3 in Calm     79 % 0 in 406.0 W/m2 FEW
12:22 50.2 °F 43.2 °F 30.3 in Calm     77 % 0 in 410.0 W/m2 CLR
12:27 50.5 °F 43.2 °F 30.3 in Calm     76 % 0 in 411.0 W/m2 CLR
12:32 50.9 °F 43.3 °F 30.3 in Calm     75 % 0 in 413.0 W/m2 CLR
12:37 51.1 °F 43.2 °F 30.3 in Calm     74 % 0 in 417.0 W/m2 CLR
12:42 51.3 °F 43.3 °F 30.3 in Calm     74 % 0 in 417.0 W/m2 CLR
12:47 51.3 °F 43.3 °F 30.3 in Calm     74 % 0 in 417.0 W/m2 CLR
12:52 51.3 °F 43.3 °F 30.3 in Calm     74 % 0 in 418.0 W/m2 CLR
12:57 51.6 °F 43.9 °F 30.3 in Calm     75 % 0 in 420.0 W/m2 CLR
13:02 51.6 °F 43.3 °F 30.3 in Calm     73 % 0 in 422.0 W/m2 CLR
13:07 52 °F 43.9 °F 30.3 in Calm     74 % 0 in 422.0 W/m2 CLR
13:12 52.2 °F 43.9 °F 30.3 in Calm     73 % 0 in 424.0 W/m2 CLR
13:17 52.2 °F 44.2 °F 30.3 in Calm     74 % 0 in 425.0 W/m2 CLR
13:22 52 °F 43.3 °F 30.3 in Calm     72 % 0 in 422.0 W/m2 CLR
13:27 51.6 °F 43.3 °F 30.3 in Calm     73 % 0 in 422.0 W/m2 CLR
13:32 51.3 °F 42.8 °F 30.3 in Calm     73 % 0 in 422.0 W/m2 CLR
13:37 51.1 °F 43.3 °F 30.3 in Calm     75 % 0 in 420.0 W/m2 CLR
13:43 50.7 °F 42.4 °F 30.3 in Calm     73 % 0 in 418.0 W/m2 CLR
13:48 50.4 °F 42.1 °F 30.3 in Calm     73 % 0 in 413.0 W/m2 CLR
13:53 50.2 °F 41.9 °F 30.3 in Calm     73 % 0 in 411.0 W/m2 CLR
13:58 50.4 °F 42.1 °F 30.3 in Calm     73 % 0 in 408.0 W/m2 CLR
14:03 50.4 °F 42.1 °F 30.3 in Calm     73 % 0 in 404.0 W/m2 CLR
14:08 50.7 °F 41.7 °F 30.3 in Calm     71 % 0 in 399.0 W/m2 CLR
14:13 50.7 °F 41.7 °F 30.3 in Calm     71 % 0 in 394.0 W/m2 CLR
14:18 50.7 °F 42.1 °F 30.3 in Calm     72 % 0 in 387.0 W/m2 CLR
14:23 50.7 °F 41.4 °F 30.3 in Calm     70 % 0 in 381.0 W/m2 CLR
14:28 50.4 °F 41.4 °F 30.3 in Calm     71 % 0 in 374.0 W/m2 CLR
14:33 50.2 °F 41.2 °F 30.3 in Calm     71 % 0 in 371.0 W/m2 CLR
14:38 50.2 °F 41.2 °F 30.3 in Calm     71 % 0 in 364.0 W/m2 CLR
14:43 50.4 °F 41.4 °F 30.3 in Calm     71 % 0 in 357.0 W/m2 CLR
14:48 50.4 °F 41 °F 30.3 in Calm     70 % 0 in 348.0 W/m2 CLR
14:53 50.7 °F 41.4 °F 30.3 in Calm     70 % 0 in 343.0 W/m2 CLR
14:58 51.3 °F 41.7 °F 30.3 in Calm     70 % 0 in 336.0 W/m2 CLR
15:03 51.3 °F 41.4 °F 30.3 in Calm     69 % 0 in 325.0 W/m2 CLR
15:08 50.9 °F 41.2 °F 30.3 in Calm     69 % 0 in 316.0 W/m2 CLR
15:09 50.9 °F 41.5 °F 30.3 in Calm     70 % 0 in 315.0 W/m2 CLR
15:14 51.3 °F 41 °F 30.3 in Calm     68 % 0 in 306.0 W/m2 CLR
15:19 51.6 °F 41.5 °F 30.3 in Calm     68 % 0 in 297.0 W/m2 CLR
15:24 51.8 °F 41.5 °F 30.3 in Calm     68 % 0 in 288.0 W/m2 CLR
15:29 51.8 °F 41.2 °F 30.3 in Calm     67 % 0 in 281.0 W/m2 CLR
15:34 51.8 °F 41.5 °F 30.3 in Calm     68 % 0 in 267.0 W/m2 CLR
15:39 52 °F 41.7 °F 30.3 in Calm     68 % 0 in 257.0 W/m2 CLR
15:44 52.2 °F 41.5 °F 30.3 in Calm     67 % 0 in 246.0 W/m2 CLR
15:49 52.3 °F 41.4 °F 30.3 in Calm     66 % 0 in 234.0 W/m2 CLR
15:54 52.5 °F 41.5 °F 30.3 in Calm     66 % 0 in 220.0 W/m2 CLR
15:59 52.5 °F 41.2 °F 30.3 in Calm     65 % 0 in 209.0 W/m2 CLR
16:04 52.5 °F 41.2 °F 30.3 in Calm     65 % 0 in 195.0 W/m2 CLR
16:09 52.9 °F 41.4 °F 30.3 in Calm     65 % 0 in 183.0 W/m2 CLR
16:14 53.1 °F 40.6 °F 30.3 in Calm     63 % 0 in 167.0 W/m2 CLR
16:19 53.2 °F 40.6 °F 30.3 in Calm     62 % 0 in 155.0 W/m2 CLR
16:24 53.4 °F 40.6 °F 30.3 in Calm     62 % 0 in 141.0 W/m2 CLR
16:29 53.4 °F 39.9 °F 30.3 in Calm     60 % 0 in 128.0 W/m2 CLR
16:34 53.6 °F 39.6 °F 30.3 in Calm     59 % 0 in 114.0 W/m2 CLR
16:39 53.8 °F 39.7 °F 30.3 in Calm     59 % 0 in 100.0 W/m2 CLR
16:44 53.8 °F 39.4 °F 30.3 in Calm     58 % 0 in 88.0 W/m2 CLR
16:49 53.8 °F 38.8 °F 30.3 in Calm     57 % 0 in 77.0 W/m2 CLR
16:54 53.6 °F 38.3 °F 30.3 in Calm     56 % 0 in 60.0 W/m2 CLR
16:59 53.4 °F 38.5 °F 30.3 in Calm     57 % 0 in 49.0 W/m2 OVC
17:04 53.2 °F 37.9 °F 30.3 in Calm     56 % 0 in 42.0 W/m2 OVC
17:09 53.2 °F 38.5 °F 30.3 in Calm     57 % 0 in 32.0 W/m2 OVC
17:14 53.1 °F 38.3 °F 30.3 in Calm     57 % 0 in 25.0 W/m2 OVC
17:19 53.1 °F 38.1 °F 30.3 in Calm     57 % 0 in 16.0 W/m2 OVC
17:24 52.7 °F 38.3 °F 30.3 in Calm     58 % 0 in 14.0 W/m2 OVC
17:29 52.5 °F 38.1 °F 30.3 in Calm     58 % 0 in 12.0 W/m2 OVC
17:34 52.2 °F 38.3 °F 30.3 in Calm     59 % 0 in 11.0 W/m2 OVC
17:39 52 °F 37.9 °F 30.3 in Calm     59 % 0 in 7.0 W/m2 OVC
17:44 51.6 °F 38.1 °F 30.3 in Calm     60 % 0 in 5.0 W/m2 OVC
17:49 51.4 °F 37.9 °F 30.3 in Calm     60 % 0 in 0.0 W/m2 CLR
17:54 51.3 °F 37.9 °F 30.3 in Calm     60 % 0 in 0.0 W/m2 CLR
17:59 51.3 °F 37.8 °F 30.3 in Calm     60 % 0 in 0.0 W/m2 CLR
18:04 51.3 °F 37.8 °F 30.3 in Calm     60 % 0 in 0.0 W/m2 CLR
18:09 51.1 °F 37.6 °F 30.3 in Calm     60 % 0 in 0.0 W/m2 CLR
18:14 51.1 °F 37.6 °F 30.3 in Calm     60 % 0 in 0.0 W/m2 CLR
18:19 50.9 °F 37.9 °F 30.3 in Calm     61 % 0 in 0.0 W/m2 CLR
18:24 51.1 °F 37.9 °F 30.3 in Calm     61 % 0 in 0.0 W/m2 CLR
18:29 50.9 °F 37.9 °F 30.3 in Calm     61 % 0 in 0.0 W/m2 CLR
18:34 51.1 °F 38.1 °F 30.3 in Calm     61 % 0 in 0.0 W/m2 CLR
18:39 51.3 °F 38.1 °F 30.3 in Calm     61 % 0 in 0.0 W/m2 CLR
18:44 51.1 °F 38.1 °F 30.3 in Calm     61 % 0 in 0.0 W/m2 CLR
18:49 51.3 °F 38.3 °F 30.3 in Calm     61 % 0 in 0.0 W/m2 CLR
18:55 51.4 °F 38.5 °F 30.3 in Calm     61 % 0 in 0.0 W/m2 CLR
19:00 51.6 °F 38.1 °F 30.3 in Calm     60 % 0 in 0.0 W/m2 CLR
19:05 51.6 °F 38.7 °F 30.3 in Calm     61 % 0 in 0.0 W/m2 CLR
19:10 51.6 °F 38.7 °F 30.3 in Calm     61 % 0 in 0.0 W/m2 CLR
19:15 51.6 °F 38.1 °F 30.3 in Calm     60 % 0 in 0.0 W/m2 CLR
19:20 51.4 °F 38.1 °F 30.3 in Calm     60 % 0 in 0.0 W/m2 CLR
19:25 51.4 °F 38.1 °F 30.3 in Calm     60 % 0 in 0.0 W/m2 CLR
19:30 51.3 °F 37.9 °F 30.3 in Calm     60 % 0 in 0.0 W/m2 CLR
19:35 51.3 °F 38.3 °F 30.3 in Calm     61 % 0 in 0.0 W/m2 CLR
19:40 51.3 °F 38.1 °F 30.3 in Calm     61 % 0 in 0.0 W/m2 CLR
19:45 51.1 °F 38.5 °F 30.3 in Calm     62 % 0 in 0.0 W/m2 CLR
19:50 50.9 °F 38.3 °F 30.3 in Calm     62 % 0 in 0.0 W/m2 CLR
19:55 50.9 °F 37.9 °F 30.3 in Calm     61 % 0 in 0.0 W/m2 CLR
20:00 51.1 °F 37.8 °F 30.3 in Calm     60 % 0 in 0.0 W/m2 CLR
20:05 51.3 °F 37.8 °F 30.3 in Calm     60 % 0 in 0.0 W/m2 CLR
20:10 51.3 °F 36.9 °F 30.3 in Calm     58 % 0 in 0.0 W/m2 CLR
20:15 51.3 °F 36.9 °F 30.3 in Calm     58 % 0 in 0.0 W/m2 CLR
20:20 51.3 °F 36.5 °F 30.3 in Calm     57 % 0 in 0.0 W/m2 CLR
20:25 51.4 °F 37 °F 30.3 in Calm     58 % 0 in 0.0 W/m2 CLR
20:30 51.3 °F 36.9 °F 30.3 in Calm     58 % 0 in 0.0 W/m2 CLR
20:35 51.3 °F 36.9 °F 30.3 in Calm     58 % 0 in 0.0 W/m2 CLR
20:40 51.1 °F 37.2 °F 30.3 in Calm     59 % 0 in 0.0 W/m2 CLR
20:45 50.9 °F 37 °F 30.3 in Calm     59 % 0 in 0.0 W/m2 CLR
20:50 50.9 °F 37 °F 30.3 in Calm     59 % 0 in 0.0 W/m2 CLR
20:55 50.9 °F 37 °F 30.3 in Calm     59 % 0 in 0.0 W/m2 CLR
21:00 50.7 °F 36.9 °F 30.3 in Calm     59 % 0 in 0.0 W/m2 CLR
21:05 50.5 °F 36.9 °F 30.3 in Calm     59 % 0 in 0.0 W/m2 CLR
21:10 50.5 °F 36.9 °F 30.3 in Calm     59 % 0 in 0.0 W/m2 CLR
21:15 50.5 °F 36.9 °F 30.3 in Calm     59 % 0 in 0.0 W/m2 CLR
21:20 50.4 °F 36.7 °F 30.3 in Calm     59 % 0 in 0.0 W/m2 CLR
21:25 50.4 °F 36.5 °F 30.3 in Calm     59 % 0 in 0.0 W/m2 CLR
21:30 50.4 °F 36.7 °F 30.3 in Calm     59 % 0 in 0.0 W/m2 CLR
21:35 50.5 °F 36.7 °F 30.3 in Calm     59 % 0 in 0.0 W/m2 CLR
21:40 50.4 °F 36.7 °F 30.3 in Calm     59 % 0 in 0.0 W/m2 CLR
21:45 50.4 °F 36.5 °F 30.3 in Calm     59 % 0 in 0.0 W/m2 CLR
21:50 50.2 °F 36.3 °F 30.3 in Calm     59 % 0 in 0.0 W/m2 CLR
21:55 50.2 °F 36.3 °F 30.3 in Calm     59 % 0 in 0.0 W/m2 CLR
22:00 50.2 °F 36 °F 30.3 in Calm     58 % 0 in 0.0 W/m2 CLR
22:05 49.8 °F 35.8 °F 30.3 in Calm     58 % 0 in 0.0 W/m2 CLR
22:10 49.8 °F 35.6 °F 30.3 in Calm     58 % 0 in 0.0 W/m2 CLR
22:15 49.8 °F 35.6 °F 30.3 in Calm     58 % 0 in 0.0 W/m2 CLR
22:20 49.6 °F 35.4 °F 30.3 in Calm     58 % 0 in 0.0 W/m2 CLR
22:25 49.6 °F 35.1 °F 30.3 in Calm     57 % 0 in 0.0 W/m2 CLR
22:30 49.5 °F 34.9 °F 30.3 in Calm     57 % 0 in 0.0 W/m2 CLR
22:35 49.5 °F 34.9 °F 30.3 in Calm     57 % 0 in 0.0 W/m2 CLR
22:40 49.5 °F 34.9 °F 30.3 in Calm     57 % 0 in 0.0 W/m2 CLR
22:45 49.3 °F 34.3 °F 30.3 in Calm     56 % 0 in 0.0 W/m2 CLR
22:50 49.3 °F 34.2 °F 30.3 in Calm     56 % 0 in 0.0 W/m2 CLR
22:55 49.1 °F 33.6 °F 30.3 in Calm     55 % 0 in 0.0 W/m2 CLR
23:00 48.9 °F 33.4 °F 30.3 in Calm     55 % 0 in 0.0 W/m2 CLR
23:05 48.9 °F 33.4 °F 30.3 in Calm     55 % 0 in 0.0 W/m2 CLR
23:10 48.9 °F 32.5 °F 30.3 in Calm     53 % 0 in 0.0 W/m2 CLR
23:15 48.7 °F 32.4 °F 30.3 in Calm     53 % 0 in 0.0 W/m2 CLR
23:20 48.7 °F 31.8 °F 30.3 in Calm     52 % 0 in 0.0 W/m2 CLR
23:25 48.4 °F 32 °F 30.3 in Calm     53 % 0 in 0.0 W/m2 CLR
23:30 48.4 °F 32.4 °F 30.3 in Calm     54 % 0 in 0.0 W/m2 CLR
23:35 48 °F 32.2 °F 30.3 in Calm     54 % 0 in 0.0 W/m2 CLR
23:40 48.2 °F 30.9 °F 30.3 in Calm     51 % 0 in 0.0 W/m2 CLR
23:48 48 °F 30.2 °F 30.3 in Calm     50 % 0 in 0.0 W/m2 CLR
23:59 47.8 °F 30 °F 30.3 in Calm     50 % 0 in 0.0 W/m2 CLR
Lo Temps de Massalio
Compliments of Weather Underground - 1.25 mb